createdAt,value
2022-12-01T09:01:24.451Z,4.30
2022-12-01T11:26:35.239Z,6.90
2022-12-01T11:29:04.683Z,7.80
2022-12-01T11:36:27.235Z,8.00
2022-12-01T11:46:30.041Z,8.70
2022-12-01T11:48:58.224Z,8.50
2022-12-01T11:51:26.678Z,8.20
2022-12-01T11:54:12.111Z,8.20
2022-12-01T11:56:38.771Z,8.10
2022-12-01T11:59:09.307Z,8.00
2022-12-01T12:01:39.127Z,8.00
2022-12-01T12:04:05.747Z,7.70
2022-12-01T12:06:40.571Z,7.80
2022-12-01T12:09:10.592Z,7.90
2022-12-01T12:11:43.362Z,7.70
2022-12-01T12:14:10.143Z,7.60
2022-12-01T12:16:46.215Z,8.30
2022-12-01T12:19:22.523Z,7.80
2022-12-01T12:22:06.151Z,7.70
2022-12-01T12:24:32.842Z,7.70
2022-12-01T12:27:23.526Z,7.50
2022-12-01T12:29:50.392Z,7.40
2022-12-01T12:32:20.256Z,7.30
2022-12-01T12:35:06.065Z,7.40
2022-12-01T12:37:32.784Z,7.30
2022-12-01T12:40:05.607Z,7.20
2022-12-01T12:42:51.113Z,7.90
2022-12-01T12:45:47.276Z,7.20
2022-12-01T12:48:23.138Z,7.40
2022-12-01T12:50:52.841Z,7.50
2022-12-01T12:53:26.950Z,7.30
2022-12-01T12:55:57.708Z,7.30
2022-12-01T12:58:24.318Z,7.80
2022-12-01T13:00:57.586Z,7.30
2022-12-01T13:03:33.939Z,7.20
2022-12-01T13:06:05.326Z,7.10
2022-12-01T13:08:34.468Z,7.20
2022-12-01T13:11:13.196Z,7.10
2022-12-01T13:13:42.805Z,7.00
2022-12-01T13:16:15.638Z,7.00
2022-12-01T13:18:42.400Z,7.00
2022-12-01T13:21:13.229Z,7.00
2022-12-01T13:23:39.974Z,7.00
2022-12-01T13:26:08.638Z,7.00
2022-12-01T13:28:38.052Z,6.90
2022-12-01T13:31:09.109Z,6.80
2022-12-01T13:33:36.972Z,6.70
2022-12-01T13:36:44.642Z,7.50
2022-12-01T13:38:59.809Z,6.90
2022-12-01T13:41:28.487Z,6.80
2022-12-01T13:44:00.011Z,6.80
2022-12-01T13:46:28.163Z,6.90
2022-12-01T13:48:56.930Z,7.30
2022-12-01T13:51:24.384Z,7.20
2022-12-01T13:54:26.377Z,7.30
2022-12-01T13:57:01.713Z,7.30
2022-12-01T13:59:38.646Z,8.30
2022-12-01T14:02:18.175Z,8.90
2022-12-01T14:04:45.017Z,8.90
2022-12-01T14:07:29.667Z,8.30
2022-12-01T14:09:58.169Z,8.00
2022-12-01T14:15:58.719Z,7.50
2022-12-01T14:22:15.590Z,7.20
2022-12-01T14:27:55.849Z,6.70
2022-12-01T14:30:46.875Z,6.60
2022-12-01T14:33:32.340Z,6.40
2022-12-01T14:35:58.972Z,6.30
2022-12-01T14:38:25.990Z,6.20
2022-12-01T14:40:52.777Z,6.20
2022-12-01T14:43:38.570Z,6.50
2022-12-01T14:46:07.816Z,6.00
2022-12-01T14:48:40.862Z,5.90
2022-12-01T14:51:18.489Z,5.80
2022-12-01T14:53:45.906Z,6.60
2022-12-01T14:56:18.640Z,5.70
2022-12-01T14:59:03.015Z,5.70
2022-12-01T15:01:39.633Z,5.60
2022-12-01T15:04:28.012Z,6.30
2022-12-01T15:06:58.733Z,5.50
2022-12-01T15:09:35.245Z,5.40
2022-12-01T15:12:04.854Z,5.30
2022-12-01T15:14:36.156Z,5.60
2022-12-01T15:17:05.166Z,5.20
2022-12-01T15:19:33.345Z,5.00
2022-12-01T15:22:02.436Z,5.00
2022-12-01T15:24:30.982Z,4.20
2022-12-01T15:27:20.737Z,4.10
2022-12-01T15:30:23.101Z,5.10
2022-12-01T15:32:55.135Z,5.00
2022-12-01T15:35:23.445Z,6.80
2022-12-01T15:37:50.850Z,5.00
2022-12-01T15:43:07.471Z,4.40
2022-12-01T15:46:06.528Z,4.80
2022-12-01T15:48:39.046Z,4.80
2022-12-01T15:51:10.919Z,4.90
2022-12-01T15:53:38.974Z,4.90
2022-12-01T15:56:07.428Z,4.50
2022-12-01T15:58:36.295Z,4.80
2022-12-01T16:01:05.149Z,6.50
2022-12-01T16:03:33.650Z,4.20
2022-12-01T16:06:00.326Z,4.40
2022-12-01T16:08:27.742Z,4.50
2022-12-01T16:11:14.687Z,4.30
2022-12-01T16:13:43.671Z,4.60
2022-12-01T16:16:29.496Z,4.20
2022-12-01T16:19:00.508Z,4.60
2022-12-01T16:21:27.411Z,4.60
2022-12-01T16:24:05.146Z,4.10
2022-12-01T16:26:32.370Z,4.50
2022-12-01T16:28:59.228Z,4.20
2022-12-01T16:31:26.645Z,4.10
2022-12-01T16:34:00.270Z,4.00
2022-12-01T16:36:27.140Z,4.50
2022-12-01T16:38:53.825Z,4.10
2022-12-01T16:41:27.944Z,4.30
2022-12-01T16:44:26.549Z,4.20
2022-12-01T16:46:41.452Z,4.10
2022-12-01T16:49:08.758Z,5.30
2022-12-01T16:51:54.924Z,4.10
2022-12-01T16:54:22.951Z,4.00
2022-12-01T16:56:49.633Z,4.40
2022-12-01T16:59:16.375Z,4.20
2022-12-01T17:01:43.071Z,4.00
2022-12-01T17:04:09.818Z,3.40
2022-12-01T17:06:38.421Z,4.10
2022-12-01T17:09:05.153Z,4.20
2022-12-01T17:11:32.121Z,6.00
2022-12-01T17:13:59.087Z,3.90
2022-12-01T17:16:25.776Z,4.10
2022-12-01T17:18:52.717Z,4.60
2022-12-01T17:21:19.402Z,5.80
2022-12-01T17:23:46.102Z,3.90
2022-12-01T17:26:14.050Z,4.20
2022-12-01T17:28:40.800Z,3.80
2022-12-01T17:31:08.128Z,4.10
2022-12-01T17:33:35.708Z,4.10
2022-12-01T17:36:04.260Z,4.00
2022-12-01T17:38:31.142Z,5.50
2022-12-01T17:41:05.677Z,3.70
2022-12-01T17:43:32.820Z,4.20
2022-12-01T17:45:59.565Z,4.10
2022-12-01T17:48:26.289Z,4.80
2022-12-01T17:50:53.104Z,3.50
2022-12-01T17:53:19.914Z,4.30
2022-12-01T17:55:46.784Z,3.90
2022-12-01T17:58:13.452Z,4.70
2022-12-01T18:00:40.176Z,4.20
2022-12-01T18:03:07.613Z,4.30
2022-12-01T18:05:34.354Z,3.60
2022-12-01T18:08:01.292Z,4.20
2022-12-01T18:10:28.017Z,3.90
2022-12-01T18:12:54.748Z,4.00
2022-12-01T18:15:21.556Z,4.00
2022-12-01T18:17:48.299Z,3.80
2022-12-01T18:20:15.025Z,3.80
2022-12-01T18:22:41.675Z,4.90
2022-12-01T18:25:08.440Z,3.80
2022-12-01T18:27:35.159Z,4.00
2022-12-01T18:30:01.913Z,4.60
2022-12-01T18:32:28.649Z,4.20
2022-12-01T18:34:55.303Z,3.50
2022-12-01T18:37:21.961Z,3.20
2022-12-01T18:39:48.742Z,3.80
2022-12-01T18:42:15.444Z,4.00
2022-12-01T18:44:42.475Z,3.90
2022-12-01T18:47:09.331Z,4.10
2022-12-01T18:49:36.068Z,4.10
2022-12-01T18:52:04.718Z,5.80
2022-12-01T18:54:31.388Z,5.00
2022-12-01T18:56:59.035Z,3.60
2022-12-01T18:59:26.997Z,4.20
2022-12-01T19:01:53.703Z,3.20
2022-12-01T19:04:20.438Z,3.60
2022-12-01T19:06:47.191Z,3.30
2022-12-01T19:09:15.610Z,5.10
2022-12-01T19:11:42.454Z,3.60
2022-12-01T19:14:13.582Z,3.70
2022-12-01T19:16:40.405Z,3.60
2022-12-01T19:19:07.090Z,3.40
2022-12-01T19:21:33.761Z,3.60
2022-12-01T19:24:00.416Z,3.60
2022-12-01T19:26:27.278Z,3.70
2022-12-01T19:28:54.013Z,3.80
2022-12-01T19:31:22.855Z,3.40
2022-12-01T19:33:49.883Z,3.50
2022-12-01T19:36:20.845Z,3.40
2022-12-01T19:38:48.029Z,3.80
2022-12-01T19:41:15.009Z,3.30
2022-12-01T19:43:45.049Z,3.20
2022-12-01T19:46:14.431Z,2.80
2022-12-01T19:48:41.211Z,3.50
2022-12-01T19:51:15.094Z,2.40
2022-12-01T19:53:41.756Z,2.70
2022-12-01T19:56:09.305Z,2.70
2022-12-01T19:58:35.991Z,2.50
2022-12-01T20:01:04.289Z,3.00
2022-12-01T20:03:31.052Z,2.60
2022-12-01T20:06:02.235Z,4.30
2022-12-01T20:08:28.926Z,3.80
2022-12-01T20:10:55.646Z,2.80
2022-12-01T20:13:22.344Z,5.00
2022-12-01T20:15:48.985Z,2.70
2022-12-01T20:18:16.133Z,3.30
2022-12-01T20:20:42.824Z,3.10
2022-12-01T20:23:09.539Z,4.80
2022-12-01T20:25:36.198Z,3.10
2022-12-01T20:28:02.873Z,3.40
2022-12-01T20:30:29.531Z,4.20
2022-12-01T20:32:56.193Z,3.20
2022-12-01T20:35:22.871Z,3.20
2022-12-01T20:37:49.573Z,4.50
2022-12-01T20:40:16.233Z,3.10
2022-12-01T20:42:42.892Z,3.00
2022-12-01T20:45:09.643Z,3.00
2022-12-01T20:47:36.760Z,3.30
2022-12-01T20:50:04.487Z,3.20
2022-12-01T20:52:31.144Z,4.20
2022-12-01T20:54:57.784Z,3.00
2022-12-01T20:57:24.714Z,3.00
2022-12-01T20:59:51.368Z,3.50
2022-12-01T21:02:18.053Z,3.30
2022-12-01T21:04:44.771Z,3.00
2022-12-01T21:07:11.459Z,3.20
2022-12-01T21:09:38.130Z,3.20
2022-12-01T21:12:29.133Z,2.80
2022-12-01T21:15:08.412Z,2.30
2022-12-01T21:17:44.060Z,3.40
2022-12-01T21:20:21.395Z,3.40
2022-12-01T21:22:49.551Z,3.20
2022-12-01T21:25:18.927Z,3.00
2022-12-01T21:27:46.312Z,2.80
2022-12-01T21:30:25.939Z,2.80
2022-12-01T21:32:53.461Z,3.10
2022-12-01T21:35:21.853Z,3.10
2022-12-01T21:37:49.135Z,2.50
2022-12-01T21:40:17.715Z,2.60
2022-12-01T21:42:44.398Z,3.10
2022-12-01T21:45:18.017Z,2.20
2022-12-01T21:47:44.646Z,3.60
2022-12-01T21:50:19.915Z,2.90
2022-12-01T21:52:46.834Z,3.10
2022-12-01T21:55:16.533Z,2.70
2022-12-01T21:57:44.661Z,3.10
2022-12-01T22:00:26.759Z,2.80
2022-12-01T22:03:02.735Z,3.20
2022-12-01T22:05:36.750Z,3.10
2022-12-01T22:08:12.601Z,3.20
2022-12-01T22:10:59.159Z,3.20
2022-12-01T22:13:45.258Z,3.40
2022-12-01T22:16:21.132Z,3.40
2022-12-01T22:18:58.285Z,3.30
2022-12-01T22:21:30.577Z,3.00
2022-12-01T22:24:09.489Z,3.10
2022-12-01T22:26:37.676Z,3.10
2022-12-01T22:29:17.136Z,2.50
2022-12-01T22:31:43.802Z,3.00
2022-12-01T22:34:11.853Z,2.50
2022-12-01T22:36:38.592Z,2.50
2022-12-01T22:39:11.262Z,2.50
2022-12-01T22:41:37.939Z,2.30
2022-12-01T22:44:04.666Z,2.90
2022-12-01T22:46:35.912Z,2.40
2022-12-01T22:49:15.674Z,3.30
2022-12-01T22:51:49.883Z,2.40
2022-12-01T22:54:16.491Z,3.30
2022-12-01T22:56:44.436Z,3.00
2022-12-01T22:59:21.453Z,2.90
2022-12-01T23:01:50.201Z,3.20
2022-12-01T23:04:31.067Z,2.90
2022-12-01T23:07:22.884Z,3.20
2022-12-01T23:09:49.588Z,3.20
2022-12-01T23:12:21.987Z,2.90
2022-12-01T23:14:50.738Z,2.90
2022-12-01T23:17:25.513Z,2.50
2022-12-01T23:19:53.428Z,3.20
2022-12-01T23:22:20.184Z,2.40
2022-12-01T23:24:46.911Z,2.60
2022-12-01T23:27:14.952Z,2.40
2022-12-01T23:29:41.616Z,3.90
2022-12-01T23:32:09.650Z,2.40
2022-12-01T23:34:36.460Z,3.00
2022-12-01T23:37:03.230Z,2.90
2022-12-01T23:39:31.909Z,2.50
2022-12-01T23:41:58.872Z,2.40
2022-12-01T23:44:34.694Z,2.50
2022-12-01T23:47:01.601Z,2.30
2022-12-01T23:49:32.295Z,1.90
2022-12-01T23:52:00.668Z,3.00
2022-12-01T23:54:29.136Z,2.50
2022-12-01T23:56:56.931Z,2.80
2022-12-01T23:59:23.982Z,2.60
